Home > Products > Valid Products > TAF

000
FTUS43 KDLH 291906 AAA
TAFDLH
TAF AMD
KDLH 291906Z 2919/3018 12012KT P6SM SCT060
     FM300000 06007KT P6SM FEW050
     FM300400 08004KT P6SM SKC
     FM301400 08012G20KT P6SM SCT050=



000
FTUS43 KDLH 291722
TAFINL
TAF
KINL 291722Z 2918/3018 04008KT P6SM SCT060
     FM300000 VRB03KT P6SM SKC
     FM301400 06010KT P6SM SCT050=



000
FTUS43 KDLH 291722
TAFDLH
TAF
KDLH 291722Z 2918/3018 07010KT P6SM SCT060
     FM300000 06007KT P6SM FEW050
     FM300400 08004KT P6SM SKC
     FM301400 08012G20KT P6SM SCT050=



000
FTUS43 KDLH 291722
TAFHYR
TAF
KHYR 291722Z 2918/3018 04010KT P6SM SCT150
     FM300000 06008KT P6SM SCT050
     FM300500 00000KT P6SM SKC
     FM301400 07010KT P6SM SCT050=



000
FTUS43 KDLH 291722
TAFBRD
TAF
KBRD 291722Z 2918/3018 05007KT P6SM SCT050
     FM300000 08005KT P6SM FEW050
     FM300400 04002KT P6SM SKC
     FM301400 08012G20KT P6SM SCT050=



000
FTUS43 KDLH 291722
TAFDLH
TAF
KDLH 291722Z 2918/3018 07010KT P6SM SCT060
     FM300000 06007KT P6SM FEW050
     FM300400 08004KT P6SM SKC
     FM301400 08012G20KT P6SM SCT050=



000
FTUS43 KDLH 291722
TAFINL
TAF
KINL 291722Z 2918/3018 04008KT P6SM SCT060
     FM300000 VRB03KT P6SM SKC
     FM301400 06010KT P6SM SCT050=



000
FTUS43 KDLH 291722
TAFBRD
TAF
KBRD 291722Z 2918/3018 05007KT P6SM SCT050
     FM300000 08005KT P6SM FEW050
     FM300400 04002KT P6SM SKC
     FM301400 08012G20KT P6SM SCT050=



000
FTUS43 KDLH 291722
TAFHYR
TAF
KHYR 291722Z 2918/3018 04010KT P6SM SCT150
     FM300000 06008KT P6SM SCT050
     FM300500 00000KT P6SM SKC
     FM301400 07010KT P6SM SCT050=



000
FTUS43 KDLH 291120
TAFHYR
TAF
KHYR 291120Z 2912/3012 02005KT P6SM BKN100
     FM291500 04010KT P6SM SCT150
     FM300000 06008KT P6SM SCT050
     FM300500 00000KT P6SM SKC=



000
FTUS43 KDLH 291120
TAFBRD
TAF
KBRD 291120Z 2912/3012 VRB03KT P6SM FEW050 BKN200
     FM291500 05008KT P6SM SCT050
     FM300000 08005KT P6SM FEW050
     FM300400 04002KT P6SM SKC=



000
FTUS43 KDLH 291120
TAFDLH
TAF
KDLH 291120Z 2912/3012 04005KT P6SM FEW050 BKN200
     FM291500 07010KT P6SM SCT060
     FM300000 06007KT P6SM FEW050
     FM300400 08004KT P6SM SKC=



000
FTUS43 KDLH 291120
TAFINL
TAF
KINL 291120Z 2912/3012 VRB03KT P6SM BKN050
     FM291500 04008KT P6SM SCT060
     FM300000 VRB03KT P6SM SKC=



000
FTUS43 KDLH 291120
TAFHYR
TAF
KHYR 291120Z 2912/3012 02005KT P6SM BKN100
     FM291500 04010KT P6SM SCT150
     FM300000 06008KT P6SM SCT050
     FM300500 00000KT P6SM SKC=



000
FTUS43 KDLH 291120
TAFBRD
TAF
KBRD 291120Z 2912/3012 VRB03KT P6SM FEW050 BKN200
     FM291500 05008KT P6SM SCT050
     FM300000 08005KT P6SM FEW050
     FM300400 04002KT P6SM SKC=



000
FTUS43 KDLH 291120
TAFDLH
TAF
KDLH 291120Z 2912/3012 04005KT P6SM FEW050 BKN200
     FM291500 07010KT P6SM SCT060
     FM300000 06007KT P6SM FEW050
     FM300400 08004KT P6SM SKC=



000
FTUS43 KDLH 290520
TAFDLH
TAF
KDLH 290520Z 2906/3006 VRB05KT P6SM BKN100
     FM291500 07010KT P6SM SCT060
     FM300000 06007KT P6SM SCT050=



000
FTUS43 KDLH 290520
TAFBRD
TAF
KBRD 290520Z 2906/3006 VRB03KT P6SM BKN100
     FM291500 05008KT P6SM SCT060
     FM300000 08005KT P6SM SCT050=



000
FTUS43 KDLH 290520
TAFHYR
TAF
KHYR 290520Z 2906/3006 02005KT P6SM BKN100
     FM291500 04010KT P6SM SCT150
     FM300200 06008KT P6SM SCT050=



000
FTUS43 KDLH 290520
TAFINL
TAF
KINL 290520Z 2906/3006 VRB03KT P6SM BKN080
     FM291500 04008KT P6SM SCT060
     FM300000 VRB04KT P6SM SCT050=



000
FTUS43 KDLH 282337
TAFDLH
TAF
KDLH 282337Z 2900/2924 09010KT P6SM BKN100
     FM290400 VRB06KT P6SM BKN050
     FM291500 07010KT P6SM SCT050=



000
FTUS43 KDLH 282337
TAFHYR
TAF
KHYR 282337Z 2900/2924 03008KT P6SM BKN080
     FM290600 02005KT P6SM SCT100
     FM291500 04010KT P6SM SCT150=



000
FTUS43 KDLH 282337
TAFINL
TAF
KINL 282337Z 2900/2924 VRB06KT P6SM FEW100
     FM290600 VRB03KT P6SM BKN050
     FM291500 04008KT P6SM SCT050=



000
FTUS43 KDLH 282337
TAFBRD
TAF
KBRD 282337Z 2900/2924 10007KT P6SM OVC080
     FM290600 VRB03KT P6SM BKN050
     FM291500 05008KT P6SM SCT050=



000
FTUS43 KDLH 282337
TAFDLH
TAF
KDLH 282337Z 2900/2924 09010KT P6SM BKN100
     FM290400 VRB06KT P6SM BKN050
     FM291500 07010KT P6SM SCT050=



000
FTUS43 KDLH 282337
TAFINL
TAF
KINL 282337Z 2900/2924 VRB06KT P6SM FEW100
     FM290600 VRB03KT P6SM BKN050
     FM291500 04008KT P6SM SCT050=



000
FTUS43 KDLH 282337
TAFBRD
TAF
KBRD 282337Z 2900/2924 10007KT P6SM OVC080
     FM290600 VRB03KT P6SM BKN050
     FM291500 05008KT P6SM SCT050=



000
FTUS43 KDLH 282337
TAFHYR
TAF
KHYR 282337Z 2900/2924 03008KT P6SM BKN080
     FM290600 02005KT P6SM SCT100
     FM291500 04010KT P6SM SCT150=



000
FTUS43 KDLH 282241 AAC
TAFDLH
TAF AMD
KDLH 282241Z 2823/2918 09014KT P6SM BKN100
     FM290200 06006KT P6SM BKN050
     FM291400 06011KT P6SM BKN070=



000
FTUS43 KDLH 281902 AAB
TAFINL
TAF AMD
KINL 281902Z 2819/2918 05010G18KT P6SM SCT100
     FM290200 05004KT P6SM BKN060
     FM291400 07010KT P6SM SCT060=



000
FTUS43 KDLH 281825 AAA
TAFINL
TAF AMD
KINL 281825Z 2818/2918 03010G18KT P6SM SCT100
     FM290200 05004KT P6SM BKN060
     FM291400 07010KT P6SM SCT060=



000
FTUS43 KDLH 281726
TAFBRD
TAF
KBRD 281726Z 2818/2918 06014G20KT P6SM VCSH OVC100
     FM290200 09006KT P6SM BKN090
     FM291400 08010KT P6SM SCT070=



000
FTUS43 KDLH 281726
TAFINL
TAF
KINL 281726Z 2818/2918 06010G18KT P6SM SCT100
     FM290200 05004KT P6SM BKN060
     FM291400 07010KT P6SM SCT060=



000
FTUS43 KDLH 281726
TAFHYR
TAF
KHYR 281726Z 2818/2918 05010G18KT P6SM VCSH OVC080
     FM290200 02010KT P6SM VCSH OVC060
     FM290600 02007KT P6SM BKN060
     FM291400 05010KT P6SM BKN090=



000
FTUS43 KDLH 281726
TAFDLH
TAF
KDLH 281726Z 2818/2918 08014G23KT P6SM OVC100
     FM290200 06006KT P6SM BKN050
     FM291400 06011KT P6SM BKN070=



000
FTUS43 KDLH 281224 AAA
TAFBRD
TAF AMD
KBRD 281224Z 2812/2912 06007KT P6SM VCSH OVC070
     FM281400 07010G17KT P6SM OVC050
     FM290200 09006KT P6SM BKN090=



000
FTUS43 KDLH 281133
TAFBRD
TAF
KBRD 281133Z 2812/2912 07013G20KT P6SM VCSH OVC060
     FM281400 07010G17KT P6SM OVC050
     FM290200 09006KT P6SM BKN090=



000
FTUS43 KDLH 281133
TAFHYR
TAF
KHYR 281133Z 2812/2912 05010KT P6SM VCSH OVC060
     FM281400 06010G17KT P6SM VCSH OVC060
     FM282100 05007KT P6SM OVC060=



000
FTUS43 KDLH 281133
TAFDLH
TAF
KDLH 281133Z 2812/2912 08013G20KT P6SM OVC090
     FM281300 07014G23KT P6SM OVC100
     FM290200 06006KT P6SM BKN120=



000
FTUS43 KDLH 281133
TAFINL
TAF
KINL 281133Z 2812/2912 06005KT P6SM BKN250
     FM281400 06010KT P6SM BKN200
     FM290100 05004KT P6SM BKN200=



000
FTUS43 KDLH 280537
TAFINL
TAF
KINL 280537Z 2806/2906 06005KT P6SM BKN250
     FM281400 06010KT P6SM BKN200
     FM290100 05004KT P6SM BKN200=



000
FTUS43 KDLH 280537
TAFBRD
TAF
KBRD 280537Z 2806/2906 07013G20KT P6SM VCSH OVC060
     FM281400 07010G17KT P6SM OVC050
     FM290200 09006KT P6SM BKN090=



000
FTUS43 KDLH 280537
TAFDLH
TAF
KDLH 280537Z 2806/2906 08013G20KT P6SM SCT100
     FM281300 07014G23KT P6SM OVC150
     FM290200 06006KT P6SM BKN120=



000
FTUS43 KDLH 280537
TAFHYR
TAF
KHYR 280537Z 2806/2906 05010KT P6SM VCSH OVC060
     FM281400 06010G17KT P6SM VCSH OVC060
     FM282100 05007KT P6SM OVC100=



000
FTUS43 KDLH 280414 AAB
TAFHYR
TAF AMD
KHYR 280414Z 2804/2824 04012G19KT P6SM OVC100
     FM281400 06010G17KT P6SM OVC080=



000
FTUS43 KDLH 280251 AAA
TAFBRD
TAF AMD
KBRD 280251Z 2803/2824 07013G21KT P6SM VCSH SCT080 OVC100
     FM281400 06011G18KT P6SM OVC080=



000
FTUS43 KDLH 280126 AAA
TAFHYR
TAF AMD
KHYR 280126Z 2801/2824 04010KT P6SM OVC100
     FM281400 06010G17KT P6SM OVC080=



000
FTUS43 KDLH 280126 AAA
TAFHYR
TAF AMD
KHYR 280126Z 2801/2824 04010KT P6SM OVC100
     FM281400 06010G17KT P6SM OVC080=



000
FTUS43 KDLH 272330
TAFDLH
TAF
KDLH 272330Z 2800/2824 08013G20KT P6SM SCT100
     FM281300 07014G23KT P6SM BKN100=



000
FTUS43 KDLH 272330
TAFBRD
TAF
KBRD 272330Z 2800/2824 07013G21KT P6SM SCT080 OVC100
     FM281400 06011G18KT P6SM OVC080=



000
FTUS43 KDLH 272330
TAFHYR
TAF
KHYR 272330Z 2800/2824 05011G18KT P6SM OVC100
     FM281400 06010G17KT P6SM OVC080=



000
FTUS43 KDLH 272330
TAFINL
TAF
KINL 272330Z 2800/2824 06006KT P6SM BKN250
     FM281400 06010KT P6SM BKN200=



000
FTUS43 KDLH 272055 AAA
TAFBRD
TAF AMD
KBRD 272055Z 2721/2818 06014G34KT P6SM VCSH OVC250
     FM280300 06012KT P6SM BKN100
     FM281400 07009G20KT P6SM OVC100=



000
FTUS43 KDLH 272055 AAA
TAFBRD
TAF AMD
KBRD 272055Z 2721/2818 06014G34KT P6SM VCSH OVC250
     FM280300 06012KT P6SM BKN100
     FM281400 07009G20KT P6SM OVC100=



000
FTUS43 KDLH 271957 AAA
TAFHYR
TAF AMD
KHYR 271957Z 2720/2818 05012G25KT P6SM SCT250
     FM280200 08013KT P6SM OVC120
     FM281400 06013KT P6SM BKN250=



000
FTUS43 KDLH 271956 AAA
TAFINL
TAF AMD
KINL 271956Z 2720/2818 07010G21KT P6SM SCT250
     FM280000 06006KT P6SM SCT250
     FM281400 08010KT P6SM BKN250=



000
FTUS43 KDLH 271738
TAFINL
TAF
KINL 271738Z 2718/2818 09010G21KT P6SM SCT250
     FM280000 06006KT P6SM SCT250
     FM281400 08010KT P6SM BKN250=



000
FTUS43 KDLH 271738
TAFBRD
TAF
KBRD 271738Z 2718/2818 06014G34KT P6SM OVC250
     FM280300 06012KT P6SM BKN100
     FM281400 07009G20KT P6SM OVC100=



000
FTUS43 KDLH 271738
TAFHYR
TAF
KHYR 271738Z 2718/2818 07012G25KT P6SM SCT250
     FM280200 08013KT P6SM OVC120
     FM281400 06013KT P6SM BKN250=



000
FTUS43 KDLH 271738
TAFDLH
TAF
KDLH 271738Z 2718/2818 08014G34KT P6SM SCT250
     FM280000 08009G20KT P6SM SCT200
     FM281200 07010G26KT P6SM BKN250=



000
FTUS43 KDLH 271535 AAA
TAFINL
TAF AMD
KINL 271535Z 2716/2812 09012KT P6SM SCT250
     FM280000 06006KT P6SM SCT250=



000
FTUS43 KDLH 271120
TAFINL
TAF
KINL 271120Z 2712/2812 07004KT P6SM FEW200
     FM271400 06012KT P6SM SCT250
     FM280000 06006KT P6SM SCT250=



000
FTUS43 KDLH 271120
TAFHYR
TAF
KHYR 271120Z 2712/2812 06008KT P6SM SCT070
     FM271400 07012G20KT P6SM SCT250
     FM280200 06011KT P6SM BKN200=



000
FTUS43 KDLH 271120
TAFBRD
TAF
KBRD 271120Z 2712/2812 07008KT P6SM OVC080
     FM271300 06014G22KT P6SM BKN100
     FM280300 06012KT P6SM BKN100=



000
FTUS43 KDLH 271120
TAFDLH
TAF
KDLH 271120Z 2712/2812 08010KT P6SM SCT120
     FM271400 08014G25KT P6SM SCT250
     FM280000 08012KT P6SM SCT200=



000
FTUS43 KDLH 271120
TAFDLH
TAF
KDLH 271120Z 2712/2812 08010KT P6SM SCT120
     FM271400 08014G25KT P6SM SCT250
     FM280000 08012KT P6SM SCT200=



000
FTUS43 KDLH 271120
TAFHYR
TAF
KHYR 271120Z 2712/2812 06008KT P6SM SCT070
     FM271400 07012G20KT P6SM SCT250
     FM280200 06011KT P6SM BKN200=



000
FTUS43 KDLH 271120
TAFBRD
TAF
KBRD 271120Z 2712/2812 07008KT P6SM OVC080
     FM271300 06014G22KT P6SM BKN100
     FM280300 06012KT P6SM BKN100=



000
FTUS43 KDLH 270533
TAFDLH
TAF
KDLH 270533Z 2706/2806 08010KT P6SM SCT120
     FM271400 08014G23KT P6SM SCT250
     FM280000 08012KT P6SM SCT200=



000
FTUS43 KDLH 270533
TAFBRD
TAF
KBRD 270533Z 2706/2806 07008KT P6SM OVC080
     FM271300 06014G22KT P6SM BKN100
     FM280300 06012KT P6SM BKN100=



000
FTUS43 KDLH 270533
TAFINL
TAF
KINL 270533Z 2706/2806 07004KT P6SM FEW200
     FM271400 06012KT P6SM SCT250
     FM280000 06006KT P6SM SCT250=



000
FTUS43 KDLH 270533
TAFHYR
TAF
KHYR 270533Z 2706/2806 06008KT P6SM SCT070
     FM271400 07012G20KT P6SM SCT250
     FM280200 06011KT P6SM BKN200=



000
FTUS43 KDLH 270533
TAFDLH
TAF
KDLH 270533Z 2706/2806 08010KT P6SM SCT120
     FM271400 08014G23KT P6SM SCT250
     FM280000 08012KT P6SM SCT200=



000
FTUS43 KDLH 270533
TAFHYR
TAF
KHYR 270533Z 2706/2806 06008KT P6SM SCT070
     FM271400 07012G20KT P6SM SCT250
     FM280200 06011KT P6SM BKN200=



000
FTUS43 KDLH 270533
TAFBRD
TAF
KBRD 270533Z 2706/2806 07008KT P6SM OVC080
     FM271300 06014G22KT P6SM BKN100
     FM280300 06012KT P6SM BKN100=



000
FTUS43 KDLH 270533
TAFINL
TAF
KINL 270533Z 2706/2806 07004KT P6SM FEW200
     FM271400 06012KT P6SM SCT250
     FM280000 06006KT P6SM SCT250=



000
FTUS43 KDLH 270231 AAA
TAFHYR
TAF AMD
KHYR 270231Z 2703/2724 04012KT P6SM FEW060
     FM270400 06008KT P6SM SCT060
     FM271400 08012G20KT P6SM SCT250=



000
FTUS43 KDLH 262337
TAFDLH
TAF
KDLH 262337Z 2700/2724 08015G25KT P6SM FEW120
     FM270200 08010KT P6SM SCT120
     FM271400 08013G22KT P6SM SCT250=



000
FTUS43 KDLH 262337
TAFBRD
TAF
KBRD 262337Z 2700/2724 07010KT P6SM OVC035
     FM270400 07012KT P6SM OVC050
     FM271400 06014G20KT P6SM SCT060=



000
FTUS43 KDLH 262337
TAFHYR
TAF
KHYR 262337Z 2700/2724 05012KT P6SM FEW060
     FM270200 07008KT P6SM SCT060
     FM271400 08012G20KT P6SM SCT250=



000
FTUS43 KDLH 262337
TAFINL
TAF
KINL 262337Z 2700/2724 09007KT P6SM SCT200
     FM271400 07012KT P6SM SCT250=



000
FTUS43 KDLH 262155 AAD
TAFBRD
TAF AMD
KBRD 262155Z 2622/2718 08011G17KT P6SM BKN050
     FM270100 06010KT P6SM SCT050
     FM270400 07012KT P6SM SCT025
     FM271400 07014G20KT P6SM SCT050=



000
FTUS43 KDLH 262155 AAD
TAFBRD
TAF AMD
KBRD 262155Z 2622/2718 08011G17KT P6SM BKN050
     FM270100 06010KT P6SM SCT050
     FM270400 07012KT P6SM SCT025
     FM271400 07014G20KT P6SM SCT050=



000
FTUS43 KDLH 262138 AAB
TAFHYR
TAF AMD
KHYR 262138Z 2622/2718 05012G20KT P6SM FEW040
     FM270000 05012KT P6SM FEW060
     FM270200 06008KT P6SM SCT060
     FM271400 10012KT P6SM SCT040=



000
FTUS43 KDLH 262048 AAC
TAFBRD
TAF AMD
KBRD 262048Z 2621/2718 08011KT P6SM OVC030
      TEMPO 2621/2624 P6SM OVC040
     FM270000 06010KT P6SM OVC040
     FM270400 07012KT P6SM SCT025
     FM271400 07014G20KT P6SM SCT050=



000
FTUS43 KDLH 262017 AAA
TAFHYR
TAF AMD
KHYR 262017Z 2620/2718 05012G20KT P6SM OVC040
     FM270000 05012KT P6SM BKN060
     FM270200 06008KT P6SM SCT060
     FM271400 10012KT P6SM SCT040=



    US Dept of Commerce
    National Oceanic and Atmospheric Administration
    National Weather Service
    1325 East West Highway
    Silver Spring, MD 20910
    Page Author: NWS Internet Services Team
Disclaimer
Information Quality
Credits
Glossary
Privacy Policy
Freedom of Information Act (FOIA)
About Us
Career Opportunities